Time;durP1;ratioP1;P1;durP2;ratioP2;P2;SDS_P1;SDS_P2;PMS_P1;PMS_P2;Temp;Humidity;BMP_temperature;BMP_pressure;BME280_temperature;BME280_humidity;BME280_pressure;Samples;Min_cycle;Max_cycle;Signal;HPM_P1;HPM_P2
2022/12/08 00:02:23;;;;;;;7.07;3.15;;;;;;;-7.28;56.85;100701.81;4761728;30;20070;-85
2022/12/08 00:10:22;;;;;;;6.43;3.22;;;;;;;-7.36;56.44;100690.22;4789264;30;20089;-85
2022/12/08 00:12:48;;;;;;;8.75;3.92;;;;;;;-8.13;56.35;100574.78;4779094;30;20046;-82
2022/12/08 00:15:15;;;;;;;8.98;3.95;;;;;;;-8.41;56.81;100501.03;4775465;30;20050;-85
2022/12/08 00:17:41;;;;;;;7.97;3.13;;;;;;;-7.77;56.53;100615.44;4780599;30;20078;-83
2022/12/08 00:20:07;;;;;;;8.45;3.88;;;;;;;-8.26;56.60;100530.00;4779957;30;20043;-84
2022/12/08 00:22:33;;;;;;;6.40;2.80;;;;;;;-7.71;56.15;100605.81;4765516;30;20386;-83
2022/12/08 00:24:59;;;;;;;7.05;3.80;;;;;;;-8.50;56.46;100479.41;4784037;30;20054;-84
2022/12/08 00:27:25;;;;;;;6.35;3.10;;;;;;;-9.12;55.97;100398.88;4793658;30;20039;-83
2022/12/08 00:29:52;;;;;;;8.25;3.90;;;;;;;-8.34;56.42;100501.63;4776520;30;20070;-84
2022/12/08 00:32:18;;;;;;;8.00;3.65;;;;;;;-8.51;56.97;100442.31;4785899;30;20088;-82
2022/12/08 00:34:44;;;;;;;9.43;3.80;;;;;;;-8.35;56.16;100488.91;4763507;30;20163;-85
2022/12/08 00:37:10;;;;;;;8.95;3.50;;;;;;;-7.92;56.49;100562.97;4761940;30;20047;-82
2022/12/08 00:39:36;;;;;;;9.32;3.67;;;;;;;-8.23;56.88;100489.84;4759662;30;20112;-82
2022/12/08 00:42:12;;;;;;;8.20;3.85;;;;;;;-8.11;56.40;100530.31;4773777;30;20104;-83
2022/12/08 00:44:42;;;;;;;9.52;3.67;;;;;;;-8.85;56.14;100393.38;4759435;30;20166;-83
2022/12/08 00:47:09;;;;;;;8.60;4.03;;;;;;;-7.97;56.36;100528.00;4759252;30;20434;-88
2022/12/08 00:49:35;;;;;;;8.50;3.95;;;;;;;-8.28;56.44;100470.94;4774092;30;20537;-84
2022/12/08 00:52:01;;;;;;;6.60;2.85;;;;;;;-7.95;56.05;100560.19;4774254;30;20080;-81
2022/12/08 00:54:27;;;;;;;9.02;3.47;;;;;;;-7.73;56.13;100599.75;4775340;30;20055;-82
2022/12/08 00:56:53;;;;;;;9.43;3.35;;;;;;;-8.29;56.61;100516.28;4794826;30;20110;-84
2022/12/08 00:59:19;;;;;;;10.40;2.80;;;;;;;-8.45;56.03;100483.88;4794137;30;20047;-82
2022/12/08 01:01:46;;;;;;;7.47;3.78;;;;;;;-7.99;56.93;100558.19;4768153;30;20051;-81
2022/12/08 01:04:15;;;;;;;7.68;3.25;;;;;;;-7.35;56.75;100674.28;4798013;30;20057;-84
2022/12/08 01:06:42;;;;;;;7.18;2.67;;;;;;;-7.49;56.32;100627.69;4773768;30;20057;-83
2022/12/08 01:09:10;;;;;;;7.90;3.30;;;;;;;-7.93;55.70;100566.25;4771928;30;20110;-86
2022/12/08 01:11:36;;;;;;;6.72;3.25;;;;;;;-7.82;56.68;100584.75;4758723;30;20430;-84
2022/12/08 01:14:02;;;;;;;8.90;3.17;;;;;;;-7.93;56.62;100553.63;4756005;30;20048;-84
2022/12/08 01:16:31;;;;;;;8.63;3.42;;;;;;;-8.38;56.75;100483.63;4755758;30;20570;-84
2022/12/08 01:18:58;;;;;;;5.07;2.72;;;;;;;-8.08;56.36;100527.16;4771371;30;20051;-85
2022/12/08 01:21:25;;;;;;;6.60;2.63;;;;;;;-8.03;56.73;100563.75;4771510;30;20052;-80
2022/12/08 01:23:51;;;;;;;5.30;3.00;;;;;;;-7.55;56.44;100678.69;4741243;30;20576;-82
2022/12/08 01:26:18;;;;;;;6.28;2.95;;;;;;;-7.53;57.02;100653.50;4741426;30;20205;-83
2022/12/08 01:28:45;;;;;;;8.48;3.22;;;;;;;-7.85;56.62;100596.28;4743352;30;20062;-82
2022/12/08 01:31:14;;;;;;;5.00;2.50;;;;;;;-8.55;56.14;100500.88;4779095;30;20047;-83
2022/12/08 01:33:41;;;;;;;7.30;3.10;;;;;;;-8.20;56.80;100559.94;4773624;30;20054;-84
2022/12/08 01:36:18;;;;;;;6.05;2.90;;;;;;;-7.88;57.11;100589.34;4747873;30;20051;-86
2022/12/08 01:38:44;;;;;;;8.23;3.13;;;;;;;-8.32;57.09;100524.50;4747081;30;20047;-85
2022/12/08 01:41:16;;;;;;;6.05;2.90;;;;;;;-8.28;57.24;100518.03;4777157;29;20044;-82
2022/12/08 01:44:03;;;;;;;8.98;3.65;;;;;;;-8.11;56.90;100542.09;4761613;30;20055;-83
2022/12/08 01:46:31;;;;;;;6.72;2.60;;;;;;;-7.48;57.41;100642.09;4773224;30;20059;-85
2022/12/08 01:49:03;;;;;;;7.10;2.78;;;;;;;-7.50;56.83;100633.50;4756660;30;20430;-85
2022/12/08 01:51:39;;;;;;;5.47;2.95;;;;;;;-8.14;57.41;100511.53;4742093;30;20062;-86
2022/12/08 01:54:35;;;;;;;6.60;2.38;;;;;;;-8.89;56.49;100387.19;4745655;30;20051;-86
2022/12/08 01:57:30;;;;;;;10.25;3.45;;;;;;;-8.05;57.30;100524.84;4744436;30;20048;-85
2022/12/08 02:00:15;;;;;;;6.18;3.00;;;;;;;-9.12;56.76;100383.72;4758649;30;20054;-83
2022/12/08 02:02:59;;;;;;;6.03;2.75;;;;;;;-7.79;57.06;100592.59;4759341;30;20490;-85
2022/12/08 02:05:29;;;;;;;7.75;3.75;;;;;;;-8.66;57.09;100454.63;4760409;30;20173;-86
2022/12/08 02:08:10;;;;;;;4.22;2.30;;;;;;;-7.64;57.42;100620.69;4776734;30;20047;-87
2022/12/08 02:10:39;;;;;;;7.10;2.90;;;;;;;-8.22;57.74;100514.34;4773731;30;20059;-85
2022/12/08 02:13:08;;;;;;;7.85;3.30;;;;;;;-8.12;57.32;100517.59;4749550;30;20213;-85
2022/12/08 02:16:02;;;;;;;5.78;2.83;;;;;;;-7.39;57.51;100631.81;4782460;30;20102;-81
2022/12/08 02:18:29;;;;;;;5.72;2.35;;;;;;;-7.36;56.85;100640.50;4790630;30;20054;-83
2022/12/08 02:21:24;;;;;;;8.50;3.47;;;;;;;-8.31;56.96;100501.00;4771600;30;20115;-86
2022/12/08 02:24:03;;;;;;;4.97;2.85;;;;;;;-7.43;57.52;100631.56;4859816;24;20144;-86
2022/12/08 02:26:53;;;;;;;8.73;3.35;;;;;;;-7.39;57.33;100627.63;4788759;29;20077;-83
2022/12/08 02:29:40;;;;;;;7.18;2.78;;;;;;;-7.42;57.43;100623.22;4798133;29;20115;-84
2022/12/08 02:32:18;;;;;;;6.90;3.08;;;;;;;-7.37;57.07;100618.50;4764510;29;20421;-85
2022/12/08 02:35:02;;;;;;;8.80;3.78;;;;;;;-8.27;57.58;100444.03;4794125;29;20402;-83
2022/12/08 02:37:42;;;;;;;8.40;3.75;;;;;;;-7.94;57.22;100485.28;4780338;29;20047;-86
2022/12/08 02:40:30;;;;;;;6.70;3.10;;;;;;;-7.27;57.43;100632.72;4763407;30;20422;-85
2022/12/08 02:43:38;;;;;;;6.15;2.75;;;;;;;-7.37;56.90;100621.03;4782866;30;20616;-85
2022/12/08 02:46:10;;;;;;;7.63;3.15;;;;;;;-8.84;57.57;100385.03;4761957;30;20055;-83
2022/12/08 02:48:36;;;;;;;;;;;;;;;-7.39;57.54;100598.94;4765462;30;20139;-85
2022/12/08 02:51:04;;;;;;;4.75;2.40;;;;;;;-7.82;56.92;100546.84;4797618;29;19928;-84
2022/12/08 02:53:33;;;;;;;7.30;3.45;;;;;;;-7.37;57.36;100610.03;4790578;29;20071;-81
2022/12/08 02:56:37;;;;;;;4.85;2.22;;;;;;;-7.43;56.97;100607.94;4796229;29;20051;-84
2022/12/08 02:59:27;;;;;;;4.82;2.20;;;;;;;-8.37;57.06;100478.66;4777773;29;20066;-83
2022/12/08 03:02:07;;;;;;;5.53;2.60;;;;;;;-8.63;57.38;100413.56;4778587;29;20102;-82
2022/12/08 03:04:47;;;;;;;6.90;2.85;;;;;;;-7.62;57.70;100590.47;4779643;29;20044;-82
2022/12/08 03:07:21;;;;;;;3.73;2.33;;;;;;;-8.22;57.63;100501.72;4776362;30;20430;-83
2022/12/08 03:10:03;;;;;;;8.30;3.40;;;;;;;-7.80;57.95;100557.97;4782605;29;20060;-83
2022/12/08 03:12:37;;;;;;;5.35;2.55;;;;;;;-7.75;57.63;100565.91;4775861;30;20044;-82
2022/12/08 03:15:09;;;;;;;4.75;2.55;;;;;;;-7.89;57.50;100548.03;4760869;29;20060;-85
2022/12/08 03:17:38;;;;;;;7.47;3.05;;;;;;;-8.53;57.80;100438.78;4776638;29;20061;-83
2022/12/08 03:20:11;;;;;;;6.35;3.22;;;;;;;-8.58;57.40;100436.63;4747576;30;20058;-84
2022/12/08 03:22:40;;;;;;;5.03;2.67;;;;;;;-8.88;57.84;100373.81;4760158;30;20101;-82
2022/12/08 03:25:12;;;;;;;5.28;2.97;;;;;;;-9.13;58.19;100346.66;4771272;30;20093;-85
2022/12/08 03:27:40;;;;;;;6.05;2.38;;;;;;;-8.52;58.06;100434.59;4775854;30;20043;-81
2022/12/08 03:30:07;;;;;;;6.03;2.92;;;;;;;-7.74;58.03;100565.13;4789624;30;20043;-81
2022/12/08 03:32:39;;;;;;;6.63;2.70;;;;;;;-7.68;58.10;100570.66;4759488;30;20096;-83
2022/12/08 03:35:11;;;;;;;7.00;3.25;;;;;;;-9.14;57.70;100352.47;4771048;30;20055;-83
2022/12/08 03:37:38;;;;;;;9.07;2.80;;;;;;;-7.98;58.32;100532.16;4754717;30;20081;-82
2022/12/08 03:40:08;;;;;;;10.77;3.45;;;;;;;-7.67;58.38;100594.28;4750544;30;20054;-83
2022/12/08 03:42:34;;;;;;;7.53;3.20;;;;;;;-8.14;57.76;100504.81;4764612;30;20395;-84
2022/12/08 03:45:00;;;;;;;7.93;3.20;;;;;;;-8.18;58.40;100487.69;4780870;30;20053;-82
2022/12/08 03:47:27;;;;;;;7.10;3.50;;;;;;;-8.41;58.41;100440.44;4783860;30;20051;-86
2022/12/08 03:49:53;;;;;;;8.85;3.72;;;;;;;-8.70;58.29;100414.75;4749480;30;20052;-87
2022/12/08 03:52:19;;;;;;;8.02;2.88;;;;;;;-7.97;57.99;100510.31;4780387;30;20538;-86
2022/12/08 03:54:45;;;;;;;9.02;2.97;;;;;;;-7.66;58.84;100559.03;4732999;30;20047;-84
2022/12/08 03:57:11;;;;;;;6.25;3.03;;;;;;;-7.71;58.30;100547.69;4745723;30;20051;-86
2022/12/08 03:59:37;;;;;;;6.35;3.00;;;;;;;-7.77;58.58;100552.25;4774458;30;20043;-83
2022/12/08 04:02:03;;;;;;;6.70;3.50;;;;;;;-8.37;58.46;100450.03;4783588;30;20065;-82
2022/12/08 04:04:30;;;;;;;10.13;3.90;;;;;;;-8.34;58.76;100440.16;4758878;30;20046;-85
2022/12/08 04:06:58;;;;;;;7.18;3.22;;;;;;;-7.59;58.69;100556.19;4760934;30;20120;-85
2022/12/08 04:09:25;;;;;;;9.43;3.30;;;;;;;-8.44;59.17;100387.19;4777944;30;20043;-85
2022/12/08 04:11:51;;;;;;;9.50;3.60;;;;;;;-8.10;58.92;100452.91;4744028;30;20047;-83
2022/12/08 04:14:20;;;;;;;7.20;3.03;;;;;;;-9.35;58.53;100242.38;4745083;30;20055;-85
2022/12/08 04:16:46;;;;;;;7.97;3.50;;;;;;;-8.67;58.27;100369.56;4771592;30;20044;-83
2022/12/08 04:19:12;;;;;;;7.03;3.45;;;;;;;-9.40;58.61;100215.19;4773493;30;20044;-88
2022/12/08 04:21:38;;;;;;;8.48;3.15;;;;;;;-8.90;58.15;100341.66;4756526;30;20047;-85
2022/12/08 04:24:05;;;;;;;11.13;4.18;;;;;;;-7.68;58.50;100506.56;4740578;30;20052;-85
2022/12/08 04:26:32;;;;;;;21.25;3.45;;;;;;;-7.46;58.39;100563.06;4740882;30;20044;-88
2022/12/08 04:29:00;;;;;;;7.95;3.42;;;;;;;-8.08;58.83;100447.19;4741843;30;20059;-84
2022/12/08 04:31:27;;;;;;;8.00;3.67;;;;;;;-7.39;58.62;100563.53;4741237;30;20063;-84
2022/12/08 04:33:53;;;;;;;6.68;3.08;;;;;;;-7.72;58.14;100520.63;4756006;30;20525;-82
2022/12/08 04:36:19;;;;;;;8.68;2.92;;;;;;;-8.73;58.19;100364.03;4770849;30;20083;-83
2022/12/08 04:39:05;;;;;;;7.60;3.45;;;;;;;-8.72;58.18;100354.84;4775827;29;20075;-84
2022/12/08 04:50:58;;;;;;;5.45;2.67;;;;;;;-9.40;59.01;100269.75;4726631;30;20068;-85
2022/12/08 04:54:07;;;;;;;9.93;3.13;;;;;;;-8.26;59.43;100443.28;4745788;30;20154;-83
2022/12/08 04:57:04;;;;;;;8.20;3.78;;;;;;;-7.93;58.88;100503.06;4771561;30;20213;-83
2022/12/08 05:00:55;;;;;;;5.18;2.72;;;;;;;-7.60;59.24;100534.19;4754187;30;20063;-85
2022/12/08 05:17:03;;;;;;;4.80;2.50;;;;;;;-9.34;59.26;100275.28;4742988;30;20055;-87
2022/12/08 05:19:44;;;;;;;7.18;3.22;;;;;;;-7.69;59.81;100546.16;4758549;30;20538;-85
2022/12/08 05:48:53;;;;;;;6.43;2.63;;;;;;;-9.10;60.28;100314.13;4800446;29;20059;-84
2022/12/08 05:51:53;;;;;;;5.80;2.72;;;;;;;-8.04;59.92;100486.19;4802965;29;20058;-84
2022/12/08 05:54:43;;;;;;;4.53;2.03;;;;;;;-9.28;59.92;100278.28;4788551;30;20428;-83
2022/12/08 05:57:53;;;;;;;6.10;3.13;;;;;;;-9.02;59.78;100317.22;4778680;30;20054;-85
2022/12/08 07:50:28;;;;;;;;;;;;;;;;;;;;;
2022/12/08 07:53:28;;;;;;;6.07;2.50;;;;;;;-7.59;59.70;100337.88;4723609;30;20093;-85
2022/12/08 07:56:06;;;;;;;8.40;3.33;;;;;;;-8.05;59.56;100231.81;4763253;29;20102;-84
2022/12/08 07:59:44;;;;;;;8.02;2.95;;;;;;;-7.93;58.87;100262.13;4803187;29;20066;-85
2022/12/08 08:21:19;;;;;;;10.82;3.15;;;;;;;-6.09;58.35;100484.19;4748124;30;20093;-84
2022/12/08 08:28:18;;;;;;;11.05;3.83;;;;;;;-7.68;58.73;100213.34;4714550;30;20061;-84
2022/12/08 08:31:10;;;;;;;6.20;3.10;;;;;;;-6.92;59.08;100332.44;4704252;30;20068;-85
2022/12/08 08:46:26;;;;;;;6.72;2.60;;;;;;;-6.07;59.16;100455.63;5145032;24;20055;-86
2022/12/08 09:07:33;;;;;;;5.10;2.92;;;;;;;-7.05;58.37;100321.47;4625114;30;20063;-84
2022/12/08 09:15:38;;;;;;;;;;;;;;;;;;;;;
2022/12/08 09:18:53;;;;;;;5.20;2.47;;;;;;;-5.95;58.26;100463.16;4723562;30;20198;-84
2022/12/08 09:21:41;;;;;;;10.10;3.95;;;;;;;-7.34;58.16;100259.59;4758296;30;20064;-84
2022/12/08 09:29:36;;;;;;;6.13;3.78;;;;;;;-7.92;58.28;100146.03;4758342;30;20129;-83
2022/12/08 09:36:07;;;;;;;8.88;3.83;;;;;;;-7.07;58.24;100263.94;4775171;30;20051;-84
2022/12/08 12:30:25;;;;;;;6.45;3.58;;;;;;;-5.94;60.32;100319.56;3393061;24;21336727;-84
2022/12/08 12:33:41;;;;;;;8.20;3.63;;;;;;;-5.43;59.60;100420.91;4772036;29;20161;-83
2022/12/08 12:40:47;;;;;;;10.85;3.90;;;;;;;-5.20;60.59;100428.34;4804931;24;20177;-86
2022/12/08 12:44:36;;;;;;;10.40;3.80;;;;;;;-5.22;60.41;100475.59;4788431;29;20120;-86
2022/12/08 12:47:11;;;;;;;10.38;4.18;;;;;;;-5.25;60.49;100444.94;4753094;29;20051;-85
2022/12/08 12:49:44;;;;;;;9.25;3.70;;;;;;;-5.29;60.31;100453.13;4774017;29;20039;-84
2022/12/08 12:55:44;;;;;;;8.48;5.07;;;;;;;-5.83;60.34;100356.63;5154131;24;20074;-84
2022/12/08 12:58:28;;;;;;;8.63;4.28;;;;;;;-6.48;60.57;100252.69;4839161;24;20074;-84
2022/12/08 13:04:37;;;;;;;9.38;3.70;;;;;;;-6.27;60.48;100316.56;4779878;29;20156;-85
2022/12/08 13:15:37;;;;;;;9.00;4.32;;;;;;;-5.31;59.93;100465.72;4784183;30;20118;-84
2022/12/08 13:32:36;;;;;;;9.23;4.03;;;;;;;-5.21;60.88;100453.63;4681587;30;20057;-84
2022/12/08 13:39:30;;;;;;;8.20;3.60;;;;;;;-6.34;60.14;100287.41;4770677;30;20109;-84
2022/12/08 13:43:00;;;;;;;;;;;;;;;;;;;;;
2022/12/08 13:46:12;;;;;;;9.30;4.03;;;;;;;-7.16;60.63;100140.19;4757787;30;20068;-83
2022/12/08 13:50:37;;;;;;;10.10;5.00;;;;;;;-5.18;61.29;100447.06;4760481;30;20054;-84
2022/12/08 13:54:08;;;;;;;9.13;4.03;;;;;;;-6.29;60.52;100293.69;4746628;30;20082;-86
2022/12/08 13:56:58;;;;;;;9.73;4.35;;;;;;;-6.83;60.29;100171.94;4759091;30;20138;-84
2022/12/08 13:59:32;;;;;;;11.20;4.22;;;;;;;-6.15;60.93;100279.41;4742889;30;20139;-84
2022/12/08 14:02:17;;;;;;;10.50;4.80;;;;;;;-6.23;61.04;100278.00;4731196;30;20044;-84
2022/12/08 14:12:30;;;;;;;9.63;4.50;;;;;;;-5.26;60.55;100392.41;4677613;30;20053;-83
2022/12/08 14:15:14;;;;;;;8.18;4.38;;;;;;;-4.91;60.60;100464.84;4689768;30;20061;-83
2022/12/08 14:18:25;;;;;;;13.00;5.20;;;;;;;-5.04;60.86;100459.78;4689750;30;20475;-84
2022/12/08 14:21:16;;;;;;;13.18;5.07;;;;;;;-4.98;60.94;100477.97;4694880;30;20060;-84
2022/12/08 14:24:44;;;;;;;10.93;4.22;;;;;;;-5.07;60.51;100457.03;4744031;30;20048;-84
2022/12/08 14:31:53;;;;;;;11.13;5.07;;;;;;;-4.97;61.54;100467.03;4784542;30;20044;-87
2022/12/08 14:47:45;;;;;;;9.73;5.18;;;;;;;-4.79;61.29;100472.38;4732181;30;20589;-85
2022/12/08 14:51:04;;;;;;;11.30;4.55;;;;;;;-5.07;60.18;100449.44;4721993;30;20147;-85
2022/12/08 14:59:45;;;;;;;11.50;4.50;;;;;;;-4.85;61.17;100483.03;4644675;30;20066;-84
2022/12/08 15:03:17;;;;;;;10.65;4.82;;;;;;;-4.86;60.63;100519.38;4654100;30;20055;-84
2022/12/08 15:10:20;;;;;;;;;;;;;;;;;;;;;
2022/12/08 15:13:28;;;;;;;8.38;4.20;;;;;;;-5.66;60.84;100318.84;4727791;30;20146;-84
2022/12/08 15:16:27;;;;;;;11.85;5.13;;;;;;;-6.26;60.60;100225.47;4679386;30;20144;-86
2022/12/08 15:20:10;;;;;;;8.73;4.60;;;;;;;-6.18;60.56;100253.00;4718291;30;20053;-84
2022/12/08 15:24:10;;;;;;;11.68;5.03;;;;;;;-4.58;60.52;100495.75;4637030;31;20132;-84
2022/12/08 15:27:24;;;;;;;12.80;5.00;;;;;;;-5.38;60.75;100335.78;4735482;30;20055;-86
2022/12/08 15:40:40;;;;;;;13.77;5.35;;;;;;;-4.53;60.90;100518.88;4712180;30;20052;-86
2022/12/08 15:43:56;;;;;;;15.48;5.70;;;;;;;-4.73;61.14;100466.81;4698549;30;20053;-85
2022/12/08 15:56:13;;;;;;;12.32;5.40;;;;;;;-5.27;60.01;100355.13;4656263;30;20117;-83
2022/12/08 16:40:32;;;;;;;10.15;4.85;;;;;;;-4.27;60.39;100524.72;5553842;24;20053;-83
2022/12/08 17:10:10;;;;;;;17.23;6.82;;;;;;;-4.57;60.59;100473.75;4785027;29;20098;-83
2022/12/08 17:14:25;;;;;;;14.07;6.90;;;;;;;-5.49;60.69;100284.38;4619306;31;20139;-84
2022/12/08 17:17:34;;;;;;;16.25;7.00;;;;;;;-4.11;60.95;100544.38;4588855;31;20078;-83
2022/12/08 17:21:55;;;;;;;;;;;;;;;;;;;;;
2022/12/08 17:25:04;;;;;;;19.50;6.88;;;;;;;-5.81;60.77;100232.50;4596770;31;20064;-84
2022/12/08 17:27:59;;;;;;;16.30;6.78;;;;;;;-4.30;61.17;100459.31;4595227;31;20167;-85
2022/12/08 17:31:01;;;;;;;17.27;7.55;;;;;;;-3.98;60.95;100539.25;4639479;31;20090;-84
2022/12/08 17:34:10;;;;;;;17.13;7.15;;;;;;;-3.87;60.70;100546.66;4629487;31;20088;-84
2022/12/08 17:36:47;;;;;;;14.38;6.88;;;;;;;-4.01;60.58;100513.63;4604202;30;20450;-86
2022/12/08 17:39:54;;;;;;;16.25;7.38;;;;;;;-5.39;60.57;100271.50;4651552;30;20062;-84
2022/12/08 17:42:41;;;;;;;17.60;7.57;;;;;;;-4.72;61.33;100366.97;4641653;30;20085;-83
2022/12/08 17:45:14;;;;;;;15.85;6.88;;;;;;;-3.56;61.32;100526.50;4649829;30;20038;-83
2022/12/08 17:48:03;;;;;;;18.38;7.88;;;;;;;-3.65;60.71;100528.47;4672918;30;20328;-84
2022/12/08 17:55:25;;;;;;;16.13;7.47;;;;;;;-4.29;60.98;100425.50;4720268;30;20030;-85
2022/12/08 17:57:51;;;;;;;16.58;7.53;;;;;;;-4.97;61.08;100335.00;4721191;30;20076;-83
2022/12/08 18:00:46;;;;;;;18.02;8.80;;;;;;;-4.48;61.43;100387.03;5162031;24;20042;-84
2022/12/08 18:03:14;;;;;;;18.58;7.72;;;;;;;-4.57;60.84;100369.56;5230947;24;20048;-87
2022/12/08 18:05:42;;;;;;;18.73;8.05;;;;;;;-3.53;61.17;100561.41;4792994;29;20051;-82
2022/12/08 18:08:10;;;;;;;16.38;7.32;;;;;;;-4.48;60.80;100405.72;4793707;30;20058;-83
2022/12/08 18:10:54;;;;;;;19.10;8.00;;;;;;;-3.49;61.02;100574.41;4795879;29;20050;-86
2022/12/08 18:13:21;;;;;;;18.90;7.57;;;;;;;-4.36;60.84;100387.81;4777793;30;20028;-82
2022/12/08 18:15:51;;;;;;;22.75;8.68;;;;;;;-3.43;61.19;100561.19;4777906;30;20059;-84
2022/12/08 18:18:19;;;;;;;19.95;8.60;;;;;;;-5.01;61.23;100290.75;4769729;30;20051;-83
2022/12/08 18:20:51;;;;;;;17.73;8.57;;;;;;;-3.50;60.82;100554.84;4791038;30;20043;-85
2022/12/08 18:23:38;;;;;;;19.77;8.02;;;;;;;-4.78;61.42;100349.69;4795427;29;20120;-86
2022/12/08 18:26:32;;;;;;;;;;;;;;;;;;;;;
2022/12/08 18:29:46;;;;;;;20.25;8.75;;;;;;;-3.52;61.34;100570.81;4792430;29;20082;-86
2022/12/08 18:32:45;;;;;;;18.70;9.13;;;;;;;-4.86;61.25;100334.00;4789449;29;20058;-85
2022/12/08 18:35:27;;;;;;;20.83;8.98;;;;;;;-4.54;61.07;100418.03;4754147;30;20102;-87
2022/12/08 18:38:54;;;;;;;18.58;8.20;;;;;;;-4.30;61.40;100456.78;4786613;30;20036;-85
2022/12/08 18:42:08;;;;;;;;;;;;;;;;;;;;;
2022/12/08 18:44:55;;;;;;;;;;;;;;;;;;;;;
2022/12/08 18:47:54;;;;;;;18.70;8.48;;;;;;;-3.57;61.70;100556.94;4769749;29;20046;-85
2022/12/08 18:51:48;;;;;;;17.50;8.07;;;;;;;-3.50;61.61;100565.00;4770604;29;20059;-85
2022/12/08 18:55:31;;;;;;;17.85;7.95;;;;;;;-4.46;61.48;100403.25;4806344;29;20051;-82
2022/12/08 18:58:16;;;;;;;;;;;;;;;;;;;;;
2022/12/08 19:01:05;;;;;;;18.08;8.55;;;;;;;-4.47;61.97;100365.94;4788132;29;20043;-84
2022/12/08 19:04:44;;;;;;;;;;;;;;;;;;;;;
2022/12/08 19:09:14;;;;;;;19.70;8.38;;;;;;;-3.42;61.68;100557.84;4678838;30;20071;-86
2022/12/08 19:12:42;;;;;;;20.73;8.52;;;;;;;-3.94;61.91;100492.88;4699415;30;20049;-87
2022/12/08 19:15:12;;;;;;;22.42;8.68;;;;;;;-4.47;61.88;100411.66;4733830;30;20058;-82
2022/12/08 19:17:58;;;;;;;18.83;8.88;;;;;;;-3.46;62.28;100576.28;4760106;30;20115;-85
2022/12/08 19:20:59;;;;;;;;;;;;;;;;;;;;;
2022/12/08 19:24:31;;;;;;;19.90;9.25;;;;;;;-3.36;62.30;100573.47;4746091;30;20048;-85
2022/12/08 19:27:04;;;;;;;21.35;8.65;;;;;;;-5.19;62.30;100270.22;4747971;30;20048;-83
2022/12/08 19:29:47;;;;;;;22.83;9.10;;;;;;;-3.23;62.38;100586.97;4758485;30;20139;-85
2022/12/08 19:32:31;;;;;;;20.33;8.88;;;;;;;-4.25;62.28;100391.84;4764618;30;20127;-85
2022/12/08 19:35:06;;;;;;;;;;;;;;;-3.16;62.14;100561.03;4762211;30;20041;-86
2022/12/08 19:38:15;;;;;;;;;;;;;;;;;;;;;
2022/12/08 19:45:16;;;;;;;20.23;8.70;;;;;;;-4.55;62.35;100329.91;4753503;30;20040;-84
2022/12/08 19:48:48;;;;;;;23.77;10.02;;;;;;;-3.22;62.14;100573.44;4709149;30;20048;-87
2022/12/08 19:51:59;;;;;;;25.45;10.82;;;;;;;-3.13;62.37;100562.91;4668846;30;20037;-90
2022/12/08 19:55:02;;;;;;;20.98;9.40;;;;;;;-3.52;61.78;100541.13;4695752;30;20073;-86
2022/12/08 19:58:20;;;;;;;23.63;9.60;;;;;;;-3.72;62.10;100461.09;4688662;30;20057;-85
2022/12/08 20:01:30;;;;;;;22.88;9.55;;;;;;;-3.93;62.33;100460.69;4681608;30;20045;-85
2022/12/08 20:05:07;;;;;;;23.98;9.73;;;;;;;-3.09;62.30;100593.72;4709919;30;20069;-84
2022/12/08 20:07:48;;;;;;;25.48;9.85;;;;;;;-4.55;62.00;100307.94;4672259;30;20065;-86
2022/12/08 20:10:20;;;;;;;22.23;9.77;;;;;;;-3.75;62.74;100435.47;4695023;30;20045;-87
2022/12/08 20:12:47;;;;;;;25.70;10.30;;;;;;;-3.96;62.36;100409.63;4708770;30;20547;-86
2022/12/08 20:15:14;;;;;;;23.15;10.38;;;;;;;-3.23;62.34;100533.50;4695714;30;20123;-86
2022/12/08 20:17:45;;;;;;;25.98;12.23;;;;;;;-3.18;62.40;100577.91;4699880;30;20144;-86
2022/12/08 20:20:11;;;;;;;24.75;9.75;;;;;;;-4.04;62.92;100408.31;4742076;30;20044;-84
2022/12/08 20:22:38;;;;;;;23.88;9.82;;;;;;;-3.13;62.82;100568.00;4759369;30;20032;-86
2022/12/08 20:25:06;;;;;;;18.50;9.02;;;;;;;-3.12;62.96;100590.13;4960406;24;20071;-84
2022/12/08 20:27:33;;;;;;;21.25;9.55;;;;;;;-3.43;62.35;100514.50;4768223;29;20079;-86
2022/12/08 20:29:59;;;;;;;27.30;11.18;;;;;;;-3.88;62.84;100443.19;4815469;29;20050;-84
2022/12/08 20:32:26;;;;;;;20.05;9.95;;;;;;;-3.61;62.06;100489.72;4815767;29;20050;-84
2022/12/08 20:34:53;;;;;;;18.52;8.90;;;;;;;-3.71;62.91;100480.66;4784329;30;20051;-81
2022/12/08 20:37:23;;;;;;;16.98;9.05;;;;;;;-3.94;63.27;100428.41;4796504;29;20442;-84
2022/12/08 20:39:52;;;;;;;20.52;9.30;;;;;;;-4.28;61.95;100409.47;4765765;30;20116;-85
2022/12/08 20:42:22;;;;;;;19.17;9.50;;;;;;;-4.29;62.91;100397.53;4772112;30;20047;-86
2022/12/08 20:45:10;;;;;;;21.50;9.85;;;;;;;-2.98;62.68;100580.75;4979863;24;20033;-85
2022/12/08 20:47:37;;;;;;;19.67;9.00;;;;;;;-3.56;63.13;100474.72;4795286;29;20031;-82
2022/12/08 20:50:05;;;;;;;20.90;9.60;;;;;;;-3.43;63.24;100495.03;4780581;30;20051;-87
2022/12/08 20:52:33;;;;;;;24.77;9.82;;;;;;;-4.26;62.78;100351.09;4771329;29;20047;-83
2022/12/08 20:55:02;;;;;;;21.92;9.43;;;;;;;-4.34;63.24;100355.75;4770753;30;20082;-86
2022/12/08 20:57:29;;;;;;;19.90;10.00;;;;;;;-4.15;63.03;100394.97;4799970;29;20100;-82
2022/12/08 20:59:57;;;;;;;20.90;9.85;;;;;;;-4.30;63.30;100372.03;4774771;29;20118;-85
2022/12/08 21:02:23;;;;;;;23.05;9.93;;;;;;;-4.17;62.77;100415.19;4770873;29;20067;-84
2022/12/08 21:04:53;;;;;;;23.08;9.65;;;;;;;-3.14;63.34;100568.78;4784108;29;20048;-83
2022/12/08 21:07:20;;;;;;;22.83;10.77;;;;;;;-3.98;63.07;100423.94;4785157;30;20111;-85
2022/12/08 21:09:46;;;;;;;22.75;9.55;;;;;;;-3.73;62.92;100487.31;4784947;30;20054;-81
2022/12/08 21:12:25;;;;;;;23.27;9.80;;;;;;;-4.08;63.26;100432.66;4770234;29;20118;-85
2022/12/08 21:14:55;;;;;;;;;;;;;;;-3.27;63.46;100577.38;4756822;30;20047;-83
2022/12/08 21:17:23;;;;;;;20.38;9.13;;;;;;;-4.06;63.65;100448.88;4771964;29;20015;-83
2022/12/08 21:19:52;;;;;;;25.10;9.45;;;;;;;-4.02;63.59;100447.44;4767310;30;20047;-85
2022/12/08 21:22:45;;;;;;;26.60;10.05;;;;;;;-3.26;63.20;100569.81;4754008;30;20083;-85
2022/12/08 21:30:12;;;;;;;21.30;9.80;;;;;;;-3.35;63.68;100592.19;4771874;29;20100;-85
2022/12/08 21:32:53;;;;;;;22.20;9.05;;;;;;;-3.60;63.85;100519.47;4793343;29;20062;-85
2022/12/08 21:37:10;;;;;;;;;;;;;;;;;;;;;
2022/12/08 21:40:02;;;;;;;28.73;10.35;;;;;;;-4.33;63.66;100410.88;4737228;30;20136;-85
2022/12/08 21:43:29;;;;;;;23.45;10.45;;;;;;;-4.67;64.66;100335.13;4661471;30;20058;-83
2022/12/08 21:46:28;;;;;;;18.30;9.80;;;;;;;-3.66;63.57;100504.72;4714344;30;20041;-81
2022/12/08 21:48:58;;;;;;;23.15;10.10;;;;;;;-4.17;63.70;100440.63;4739241;30;20104;-85
2022/12/08 21:51:27;;;;;;;22.35;9.27;;;;;;;-4.43;63.38;100389.09;4785115;30;20035;-82
2022/12/08 21:54:15;;;;;;;22.38;9.98;;;;;;;-4.20;64.06;100430.28;4775796;30;20079;-84
2022/12/08 21:56:44;;;;;;;22.13;10.15;;;;;;;-4.17;63.94;100432.13;4772605;30;20050;-84
2022/12/08 21:59:10;;;;;;;25.05;10.30;;;;;;;-3.75;63.96;100496.53;4759243;30;20047;-85
2022/12/08 22:01:36;;;;;;;22.42;10.70;;;;;;;-4.04;63.69;100467.66;4758577;30;20047;-84
2022/12/08 22:04:20;;;;;;;20.00;10.25;;;;;;;-3.76;64.14;100479.50;4765982;30;20050;-83
2022/12/08 22:06:47;;;;;;;22.85;9.68;;;;;;;-3.15;64.11;100572.13;4754424;30;20043;-82
2022/12/08 22:09:46;;;;;;;23.13;10.50;;;;;;;-3.13;64.27;100575.66;4768900;24;20040;31
2022/12/08 22:12:15;;;;;;;22.30;9.80;;;;;;;-4.25;64.74;100396.94;4792858;29;20095;-84
2022/12/08 22:14:42;;;;;;;25.17;10.38;;;;;;;-3.28;64.06;100557.78;4794832;29;20060;-87
2022/12/08 22:17:18;;;;;;;22.10;9.90;;;;;;;-3.97;63.82;100454.53;4773713;30;20027;-85
2022/12/08 22:19:45;;;;;;;21.08;9.98;;;;;;;-3.96;63.87;100425.78;4790972;30;20119;-84
2022/12/08 22:22:25;;;;;;;25.85;10.88;;;;;;;-4.56;64.32;100334.13;4786169;30;20047;-84
2022/12/08 22:24:51;;;;;;;31.47;10.77;;;;;;;-4.00;64.26;100448.41;4777157;30;20062;-87
2022/12/08 22:27:17;;;;;;;25.35;10.35;;;;;;;-4.31;64.22;100365.19;4773570;30;20091;-82
2022/12/08 22:29:43;;;;;;;24.77;10.68;;;;;;;-3.80;63.97;100472.47;4773142;30;20047;-83
2022/12/08 22:32:09;;;;;;;20.90;9.55;;;;;;;-3.72;63.99;100484.00;4773322;30;20082;-84
2022/12/08 22:34:36;;;;;;;24.30;10.05;;;;;;;-3.36;64.63;100537.84;4758810;30;20059;-87
2022/12/08 22:37:02;;;;;;;23.08;10.77;;;;;;;-3.97;64.15;100438.41;4772865;30;20051;-85
2022/12/08 22:39:28;;;;;;;21.92;10.25;;;;;;;-4.15;64.57;100406.00;4773458;30;20052;-86